• Join FlightAware (Why Join?)
  • Login
  • US Flag 
09:30PM EDT


 

Airport Tracker/Info


-or-


 

Live Flight TrackerFlight Track Log ✈ DAL6067 ✈ 20-Apr-2013 ✈ KDTW - KCMH

Flight Track Log - Related Links

Times and Time Zones

All times are in EDT time to prevent confusion due to time zone crossing. See the DAL6067 flight status page for this flight to view local times or setup timezone preferences in your user account.

Time Position Orientation Groundspeed Altitude Reporting Facility
EDT Latitude Longitude Course Direction KTS MPH feet Rate Location/Type
12:11PM 42.2017 -83.3583 180° South 165 190 1,400  Level Cleveland Center
12:11PM 42.1597 -83.3675 189° South 196 226 3,600 2,220 Climbing Cleveland Center
12:12PM 42.0989 -83.3817 190° South 252 290 5,500 1,980 Climbing Cleveland Center
12:13PM 42.0758 -83.3806 178° South 259 298 6,300 2,400 Climbing Cleveland Center
12:14PM 41.8368 -83.2729 180° South  Level Estimated
12:14PM 42.0011 -83.3717 175° South 272 313 8,700  Level Cleveland Center
12:15PM 41.7429 -83.2529 180° South  Level Estimated
12:15PM 41.9325 -83.3661 177° South 272 313 10,800  Level Cleveland Center
12:16PM 41.6490 -83.2330 180° South  Level Estimated
12:16PM 41.8492 -83.3597 177° South 284 327 12,300  Level Cleveland Center
12:17PM 41.7575 -83.3528 177° South 308 354 13,700 1,380 Climbing Cleveland Center
12:18PM 41.6639 -83.3461 177° South 331 381 15,100 1,380 Climbing Cleveland Center
12:19PM 41.5642 -83.3361 176° South 347 399 16,500 1,260 Climbing Cleveland Center
12:20PM 41.4664 -83.3264 176° South 353 406 17,700 720 Climbing Cleveland Center
12:21PM 41.3622 -83.3194 177° South 366 421 18,000 120 Climbing Cleveland Center
12:22PM 41.2519 -83.3092 176° South 383 441 18,000  Level Cleveland Center
12:23PM 41.1397 -83.2989 176° South 399 459 18,000 -60 Level Cleveland Center
12:24PM 41.0233 -83.2858 175° South 399 459 17,900 -300 Descending Cleveland Center
12:25PM 40.9192 -83.2789 177° South 392 451 17,500 -1,500 Descending Cleveland Center
12:26PM 40.8256 -83.2722 177° South 361 415 14,900 -2,580 Descending Cleveland Center
12:27PM 40.7297 -83.2628 176° South 342 394 12,400 -2,040 Descending Cleveland Center
12:28PM 40.5911 -83.2531 177° South 338 389 9,900 -960 Descending Indianapolis Center
12:29PM 40.5069 -83.2272 167° South 325 374 10,000  Climbing Indianapolis Center
12:30PM 40.4389 -83.1486 139° Southeast 324 373 10,000  Level Indianapolis Center
12:30PM 40.4131 -83.1217 142° Southeast 333 383 10,000  Level Indianapolis Center
12:31PM 40.3453 -83.0425 138° Southeast 346 398 10,000  Level Indianapolis Center
12:32PM 40.2928 -82.9817 139° Southeast 348 400 10,000  Level Indianapolis Center
12:33PM 40.2711 -82.9600 143° Southeast 348 400 10,000 -1,020 Level Indianapolis Center
12:33PM 40.2258 -82.9061 138° Southeast 318 366 9,000 -1,680 Descending Indianapolis Center
12:34PM 40.1956 -82.8722 139° Southeast 284 327 8,000 -1,800 Descending Indianapolis Center
12:34PM 40.1650 -82.8358 138° Southeast 292 336 7,200 -1,320 Descending Indianapolis Center
12:35PM 40.1372 -82.8056 140° Southeast 267 307 6,700 -1,020 Descending Indianapolis Center
12:35PM 40.1081 -82.7711 138° Southeast 274 315 6,200 -900 Descending Indianapolis Center
12:36PM 40.0511 -82.7106 141° Southeast 263 303 5,300 -900 Descending Indianapolis Center
12:37PM 39.9831 -82.6925 169° South 251 289 4,400 -900 Descending Indianapolis Center